Portada
METAR-TAF:

METAR-TAF

Aeroports :

Ilam, Iran

latitud: 33-35-09N, longitud: 046-24-20E, altitud: 1334 m

Observació

L'informe es va fer fa 39 minuts, a les 10:00 UTC
Vent 10 kt del Nord-Oest
Temperatura 40°C
Humitat 13%
Pressió 1012 hPa
Visibilitat 10 km o més
sense núvols per sota de 1500 mi sense presència de cumulonimbus.

METAR: OICI 091000Z 32010KT CAVOK 40/06 Q1012 A2989

Hora: 15:09 (10:39 UTC)

Pronòstic

L'informe es va fer fa 5 hores i 29 minuts, a les 05:10 UTC
Pronòstic vàlid del 09 a les 06 UTC al 10 a les 12 UTC
Vent 14 kt del Nord-Oest
Visibilitat: 8000 m

TAF: OICI 090510Z 0906/1012 32014KT 8000 NSC

Observacions i pronòstics meteorològics de més de 4000 aeroports (METAR i TAF).

Les estacions disponibles són els punts grocs i vermells al mapa.

Posi el ratolí al punt desitjat per veure el nom de l'estació.

Feu clic per veure les observacions i els pronòstics meteorològics.

Per canviar el mapa: feu clic els botons verds amb una creu de color negre per apropar; al botó verd amb un guió per allunyar la imatge; o en les fletxes verdes per a mapes adjacents.


METAR-TAF: